sensor_id;sensor_type;location;lat;lon;timestamp;P1;durP1;ratioP1;P2;durP2;ratioP2
41885;SDS011;27567;43.084;25.616;2023-07-09T00:00:02;21.77;;;12.60;;
41885;SDS011;27567;43.084;25.616;2023-07-09T00:02:48;19.55;;;13.35;;
41885;SDS011;27567;43.084;25.616;2023-07-09T00:05:32;21.00;;;12.05;;
41885;SDS011;27567;43.084;25.616;2023-07-09T00:08:27;18.02;;;11.68;;
41885;SDS011;27567;43.084;25.616;2023-07-09T00:11:12;17.80;;;11.57;;
41885;SDS011;27567;43.084;25.616;2023-07-09T00:13:56;14.93;;;11.55;;
41885;SDS011;27567;43.084;25.616;2023-07-09T00:16:41;21.63;;;10.93;;
41885;SDS011;27567;43.084;25.616;2023-07-09T00:19:27;18.60;;;10.45;;
41885;SDS011;27567;43.084;25.616;2023-07-09T00:22:14;15.40;;;10.82;;
41885;SDS011;27567;43.084;25.616;2023-07-09T00:25:02;16.15;;;10.30;;
41885;SDS011;27567;43.084;25.616;2023-07-09T00:27:48;14.73;;;8.43;;
41885;SDS011;27567;43.084;25.616;2023-07-09T00:30:33;17.50;;;8.75;;
41885;SDS011;27567;43.084;25.616;2023-07-09T00:33:17;18.50;;;9.30;;
41885;SDS011;27567;43.084;25.616;2023-07-09T00:36:05;12.20;;;8.57;;
41885;SDS011;27567;43.084;25.616;2023-07-09T00:39:12;18.63;;;8.75;;
41885;SDS011;27567;43.084;25.616;2023-07-09T00:42:01;13.57;;;9.95;;
41885;SDS011;27567;43.084;25.616;2023-07-09T00:44:46;16.70;;;8.57;;
41885;SDS011;27567;43.084;25.616;2023-07-09T00:50:31;11.20;;;8.52;;
41885;SDS011;27567;43.084;25.616;2023-07-09T00:53:22;14.73;;;7.35;;
41885;SDS011;27567;43.084;25.616;2023-07-09T00:56:14;15.07;;;6.90;;
41885;SDS011;27567;43.084;25.616;2023-07-09T00:59:18;13.20;;;7.30;;
41885;SDS011;27567;43.084;25.616;2023-07-09T01:02:07;14.73;;;7.78;;
41885;SDS011;27567;43.084;25.616;2023-07-09T01:04:53;16.05;;;7.45;;
41885;SDS011;27567;43.084;25.616;2023-07-09T01:07:44;10.45;;;7.07;;
41885;SDS011;27567;43.084;25.616;2023-07-09T01:10:29;12.65;;;6.97;;
41885;SDS011;27567;43.084;25.616;2023-07-09T01:13:14;15.73;;;6.22;;
41885;SDS011;27567;43.084;25.616;2023-07-09T01:15:59;12.27;;;6.10;;
41885;SDS011;27567;43.084;25.616;2023-07-09T01:18:43;16.27;;;6.40;;
41885;SDS011;27567;43.084;25.616;2023-07-09T01:21:27;18.42;;;6.15;;
41885;SDS011;27567;43.084;25.616;2023-07-09T01:24:12;18.73;;;6.95;;
41885;SDS011;27567;43.084;25.616;2023-07-09T01:26:58;14.35;;;6.68;;
41885;SDS011;27567;43.084;25.616;2023-07-09T01:29:45;11.93;;;5.88;;
41885;SDS011;27567;43.084;25.616;2023-07-09T01:32:32;13.88;;;6.43;;
41885;SDS011;27567;43.084;25.616;2023-07-09T01:35:18;15.43;;;6.72;;
41885;SDS011;27567;43.084;25.616;2023-07-09T01:38:04;12.30;;;5.60;;
41885;SDS011;27567;43.084;25.616;2023-07-09T01:40:50;11.60;;;6.40;;
41885;SDS011;27567;43.084;25.616;2023-07-09T01:43:34;13.32;;;6.57;;
41885;SDS011;27567;43.084;25.616;2023-07-09T01:46:18;11.98;;;6.50;;
41885;SDS011;27567;43.084;25.616;2023-07-09T01:49:03;16.60;;;6.78;;
41885;SDS011;27567;43.084;25.616;2023-07-09T01:51:47;10.70;;;5.93;;
41885;SDS011;27567;43.084;25.616;2023-07-09T01:54:32;11.40;;;6.35;;
41885;SDS011;27567;43.084;25.616;2023-07-09T01:57:25;11.65;;;6.88;;
41885;SDS011;27567;43.084;25.616;2023-07-09T02:00:16;19.85;;;7.38;;
41885;SDS011;27567;43.084;25.616;2023-07-09T02:03:01;14.68;;;7.50;;
41885;SDS011;27567;43.084;25.616;2023-07-09T02:05:46;14.57;;;6.80;;
41885;SDS011;27567;43.084;25.616;2023-07-09T02:08:29;14.68;;;6.75;;
41885;SDS011;27567;43.084;25.616;2023-07-09T02:11:13;12.50;;;6.10;;
41885;SDS011;27567;43.084;25.616;2023-07-09T02:13:57;17.35;;;6.40;;
41885;SDS011;27567;43.084;25.616;2023-07-09T02:16:41;10.65;;;6.15;;
41885;SDS011;27567;43.084;25.616;2023-07-09T02:19:27;12.05;;;6.78;;
41885;SDS011;27567;43.084;25.616;2023-07-09T02:22:12;14.45;;;6.00;;
41885;SDS011;27567;43.084;25.616;2023-07-09T02:24:56;167.50;;;17.08;;
41885;SDS011;27567;43.084;25.616;2023-07-09T02:27:40;373.83;;;24.48;;
41885;SDS011;27567;43.084;25.616;2023-07-09T02:30:25;713.00;;;42.53;;
41885;SDS011;27567;43.084;25.616;2023-07-09T02:33:09;368.02;;;31.70;;
41885;SDS011;27567;43.084;25.616;2023-07-09T02:35:53;373.63;;;32.00;;
41885;SDS011;27567;43.084;25.616;2023-07-09T02:38:37;625.13;;;51.28;;
41885;SDS011;27567;43.084;25.616;2023-07-09T02:41:21;325.63;;;37.03;;
41885;SDS011;27567;43.084;25.616;2023-07-09T02:44:05;303.23;;;38.38;;
41885;SDS011;27567;43.084;25.616;2023-07-09T02:46:50;199.75;;;36.13;;
41885;SDS011;27567;43.084;25.616;2023-07-09T02:49:35;58.72;;;31.02;;
41885;SDS011;27567;43.084;25.616;2023-07-09T02:52:19;62.75;;;29.63;;
41885;SDS011;27567;43.084;25.616;2023-07-09T02:55:04;67.25;;;31.15;;
41885;SDS011;27567;43.084;25.616;2023-07-09T02:57:48;64.05;;;32.25;;
41885;SDS011;27567;43.084;25.616;2023-07-09T03:00:32;58.85;;;32.03;;
41885;SDS011;27567;43.084;25.616;2023-07-09T03:03:16;51.80;;;29.83;;
41885;SDS011;27567;43.084;25.616;2023-07-09T03:06:00;56.75;;;30.02;;
41885;SDS011;27567;43.084;25.616;2023-07-09T03:08:44;57.65;;;30.42;;
41885;SDS011;27567;43.084;25.616;2023-07-09T03:11:29;51.33;;;27.75;;
41885;SDS011;27567;43.084;25.616;2023-07-09T03:14:14;53.53;;;29.48;;
41885;SDS011;27567;43.084;25.616;2023-07-09T03:16:59;51.97;;;29.58;;
41885;SDS011;27567;43.084;25.616;2023-07-09T03:19:43;57.22;;;30.35;;
41885;SDS011;27567;43.084;25.616;2023-07-09T03:22:27;58.70;;;31.33;;
41885;SDS011;27567;43.084;25.616;2023-07-09T03:25:11;63.78;;;33.22;;
41885;SDS011;27567;43.084;25.616;2023-07-09T03:27:56;62.00;;;31.40;;
41885;SDS011;27567;43.084;25.616;2023-07-09T03:30:43;66.35;;;33.45;;
41885;SDS011;27567;43.084;25.616;2023-07-09T03:33:29;80.78;;;34.97;;
41885;SDS011;27567;43.084;25.616;2023-07-09T03:36:14;70.00;;;34.38;;
41885;SDS011;27567;43.084;25.616;2023-07-09T03:38:59;61.42;;;33.42;;
41885;SDS011;27567;43.084;25.616;2023-07-09T03:41:42;95.65;;;52.83;;
41885;SDS011;27567;43.084;25.616;2023-07-09T03:44:26;100.85;;;64.22;;
41885;SDS011;27567;43.084;25.616;2023-07-09T03:47:10;99.25;;;52.20;;
41885;SDS011;27567;43.084;25.616;2023-07-09T03:49:54;85.25;;;47.97;;
41885;SDS011;27567;43.084;25.616;2023-07-09T03:52:39;93.15;;;49.20;;
41885;SDS011;27567;43.084;25.616;2023-07-09T03:55:23;86.10;;;46.22;;
41885;SDS011;27567;43.084;25.616;2023-07-09T03:58:10;102.15;;;46.47;;
41885;SDS011;27567;43.084;25.616;2023-07-09T04:00:53;157.30;;;49.85;;
41885;SDS011;27567;43.084;25.616;2023-07-09T04:03:38;194.95;;;51.53;;
41885;SDS011;27567;43.084;25.616;2023-07-09T04:06:22;439.48;;;58.10;;
41885;SDS011;27567;43.084;25.616;2023-07-09T04:09:07;447.63;;;60.92;;
41885;SDS011;27567;43.084;25.616;2023-07-09T04:11:51;134.20;;;47.63;;
41885;SDS011;27567;43.084;25.616;2023-07-09T04:14:35;87.53;;;53.33;;
41885;SDS011;27567;43.084;25.616;2023-07-09T04:17:19;89.63;;;50.47;;
41885;SDS011;27567;43.084;25.616;2023-07-09T04:20:06;92.55;;;48.25;;
41885;SDS011;27567;43.084;25.616;2023-07-09T04:22:51;79.47;;;44.75;;
41885;SDS011;27567;43.084;25.616;2023-07-09T04:25:35;100.05;;;39.78;;
41885;SDS011;27567;43.084;25.616;2023-07-09T04:28:19;65.72;;;37.20;;
41885;SDS011;27567;43.084;25.616;2023-07-09T04:31:03;161.38;;;36.38;;
41885;SDS011;27567;43.084;25.616;2023-07-09T04:33:48;51.17;;;32.97;;
41885;SDS011;27567;43.084;25.616;2023-07-09T04:36:32;40.17;;;28.67;;
41885;SDS011;27567;43.084;25.616;2023-07-09T04:39:16;40.67;;;26.00;;
41885;SDS011;27567;43.084;25.616;2023-07-09T04:42:00;42.22;;;23.90;;
41885;SDS011;27567;43.084;25.616;2023-07-09T04:44:45;29.95;;;20.40;;
41885;SDS011;27567;43.084;25.616;2023-07-09T04:47:29;31.63;;;20.10;;
41885;SDS011;27567;43.084;25.616;2023-07-09T04:50:13;32.50;;;19.85;;
41885;SDS011;27567;43.084;25.616;2023-07-09T04:52:58;30.88;;;18.00;;
41885;SDS011;27567;43.084;25.616;2023-07-09T04:55:43;30.88;;;17.08;;
41885;SDS011;27567;43.084;25.616;2023-07-09T04:58:27;23.35;;;13.88;;
41885;SDS011;27567;43.084;25.616;2023-07-09T05:01:11;18.00;;;11.98;;
41885;SDS011;27567;43.084;25.616;2023-07-09T05:03:55;17.67;;;12.52;;
41885;SDS011;27567;43.084;25.616;2023-07-09T05:06:39;19.75;;;13.70;;
41885;SDS011;27567;43.084;25.616;2023-07-09T05:09:24;25.00;;;15.27;;
41885;SDS011;27567;43.084;25.616;2023-07-09T05:12:08;14.57;;;8.80;;
41885;SDS011;27567;43.084;25.616;2023-07-09T05:14:54;16.48;;;10.45;;
41885;SDS011;27567;43.084;25.616;2023-07-09T05:17:38;14.32;;;9.90;;
41885;SDS011;27567;43.084;25.616;2023-07-09T05:20:22;22.08;;;10.85;;
41885;SDS011;27567;43.084;25.616;2023-07-09T05:23:07;10.95;;;7.95;;
41885;SDS011;27567;43.084;25.616;2023-07-09T05:25:56;15.85;;;7.95;;
41885;SDS011;27567;43.084;25.616;2023-07-09T05:28:41;18.27;;;8.82;;
41885;SDS011;27567;43.084;25.616;2023-07-09T05:31:25;17.90;;;7.68;;
41885;SDS011;27567;43.084;25.616;2023-07-09T05:34:09;14.55;;;7.90;;
41885;SDS011;27567;43.084;25.616;2023-07-09T05:36:53;8.40;;;5.25;;
41885;SDS011;27567;43.084;25.616;2023-07-09T05:39:40;11.18;;;4.65;;
41885;SDS011;27567;43.084;25.616;2023-07-09T05:42:25;11.50;;;4.13;;
41885;SDS011;27567;43.084;25.616;2023-07-09T05:45:09;8.77;;;4.15;;
41885;SDS011;27567;43.084;25.616;2023-07-09T05:47:54;9.90;;;3.70;;
41885;SDS011;27567;43.084;25.616;2023-07-09T05:50:38;10.52;;;4.00;;
41885;SDS011;27567;43.084;25.616;2023-07-09T05:53:22;17.95;;;5.35;;
41885;SDS011;27567;43.084;25.616;2023-07-09T05:56:07;11.43;;;3.47;;
41885;SDS011;27567;43.084;25.616;2023-07-09T05:58:51;7.35;;;3.60;;
41885;SDS011;27567;43.084;25.616;2023-07-09T06:01:36;5.72;;;3.25;;
41885;SDS011;27567;43.084;25.616;2023-07-09T06:04:20;8.10;;;4.03;;
41885;SDS011;27567;43.084;25.616;2023-07-09T06:07:04;9.27;;;3.90;;
41885;SDS011;27567;43.084;25.616;2023-07-09T06:09:48;6.70;;;4.10;;
41885;SDS011;27567;43.084;25.616;2023-07-09T06:12:32;7.47;;;4.13;;
41885;SDS011;27567;43.084;25.616;2023-07-09T06:15:16;7.47;;;4.00;;
41885;SDS011;27567;43.084;25.616;2023-07-09T06:18:00;10.27;;;3.97;;
41885;SDS011;27567;43.084;25.616;2023-07-09T06:20:48;9.07;;;3.80;;
41885;SDS011;27567;43.084;25.616;2023-07-09T06:23:34;8.15;;;3.72;;
41885;SDS011;27567;43.084;25.616;2023-07-09T06:26:18;5.85;;;4.00;;
41885;SDS011;27567;43.084;25.616;2023-07-09T06:29:03;5.78;;;3.47;;
41885;SDS011;27567;43.084;25.616;2023-07-09T06:31:47;6.88;;;4.00;;
41885;SDS011;27567;43.084;25.616;2023-07-09T06:34:31;7.20;;;4.22;;
41885;SDS011;27567;43.084;25.616;2023-07-09T06:37:16;10.68;;;3.42;;
41885;SDS011;27567;43.084;25.616;2023-07-09T06:40:00;8.60;;;3.70;;
41885;SDS011;27567;43.084;25.616;2023-07-09T06:42:46;8.70;;;3.95;;
41885;SDS011;27567;43.084;25.616;2023-07-09T06:45:30;6.45;;;3.72;;
41885;SDS011;27567;43.084;25.616;2023-07-09T06:48:15;5.88;;;3.60;;
41885;SDS011;27567;43.084;25.616;2023-07-09T06:51:00;6.05;;;4.18;;
41885;SDS011;27567;43.084;25.616;2023-07-09T06:53:44;8.13;;;4.00;;
41885;SDS011;27567;43.084;25.616;2023-07-09T06:56:31;7.45;;;3.78;;
41885;SDS011;27567;43.084;25.616;2023-07-09T06:59:16;11.15;;;3.15;;
41885;SDS011;27567;43.084;25.616;2023-07-09T07:01:59;8.80;;;3.20;;
41885;SDS011;27567;43.084;25.616;2023-07-09T07:04:46;8.60;;;3.80;;
41885;SDS011;27567;43.084;25.616;2023-07-09T07:07:50;6.53;;;3.70;;
41885;SDS011;27567;43.084;25.616;2023-07-09T07:10:37;10.68;;;3.65;;
41885;SDS011;27567;43.084;25.616;2023-07-09T07:13:21;4.60;;;3.35;;
41885;SDS011;27567;43.084;25.616;2023-07-09T07:16:06;5.30;;;3.55;;
41885;SDS011;27567;43.084;25.616;2023-07-09T07:18:56;7.45;;;3.50;;
41885;SDS011;27567;43.084;25.616;2023-07-09T07:21:40;6.70;;;3.45;;
41885;SDS011;27567;43.084;25.616;2023-07-09T07:24:25;5.47;;;3.50;;
41885;SDS011;27567;43.084;25.616;2023-07-09T07:27:09;5.75;;;3.00;;
41885;SDS011;27567;43.084;25.616;2023-07-09T07:29:53;5.18;;;3.22;;
41885;SDS011;27567;43.084;25.616;2023-07-09T07:32:38;6.43;;;3.30;;
41885;SDS011;27567;43.084;25.616;2023-07-09T07:35:25;7.50;;;4.28;;
41885;SDS011;27567;43.084;25.616;2023-07-09T07:38:09;6.47;;;3.83;;
41885;SDS011;27567;43.084;25.616;2023-07-09T07:40:53;9.48;;;4.00;;
41885;SDS011;27567;43.084;25.616;2023-07-09T07:43:37;6.93;;;3.55;;
41885;SDS011;27567;43.084;25.616;2023-07-09T07:46:25;9.07;;;3.97;;
41885;SDS011;27567;43.084;25.616;2023-07-09T07:49:09;5.72;;;3.75;;
41885;SDS011;27567;43.084;25.616;2023-07-09T07:51:53;4.78;;;3.50;;
41885;SDS011;27567;43.084;25.616;2023-07-09T07:54:37;4.70;;;3.25;;
41885;SDS011;27567;43.084;25.616;2023-07-09T07:57:23;5.20;;;3.13;;
41885;SDS011;27567;43.084;25.616;2023-07-09T08:00:11;5.57;;;3.20;;
41885;SDS011;27567;43.084;25.616;2023-07-09T08:02:55;5.82;;;2.42;;
41885;SDS011;27567;43.084;25.616;2023-07-09T08:05:39;4.78;;;2.10;;
41885;SDS011;27567;43.084;25.616;2023-07-09T08:08:23;6.55;;;2.00;;
41885;SDS011;27567;43.084;25.616;2023-07-09T08:11:10;3.47;;;2.20;;
41885;SDS011;27567;43.084;25.616;2023-07-09T08:13:54;2.83;;;2.33;;
41885;SDS011;27567;43.084;25.616;2023-07-09T08:16:39;4.18;;;2.60;;
41885;SDS011;27567;43.084;25.616;2023-07-09T08:19:23;3.13;;;2.40;;
41885;SDS011;27567;43.084;25.616;2023-07-09T08:22:08;5.55;;;2.55;;
41885;SDS011;27567;43.084;25.616;2023-07-09T08:24:52;8.13;;;3.05;;
41885;SDS011;27567;43.084;25.616;2023-07-09T08:27:36;4.72;;;2.40;;
41885;SDS011;27567;43.084;25.616;2023-07-09T08:30:20;12.27;;;2.63;;
41885;SDS011;27567;43.084;25.616;2023-07-09T08:33:04;6.07;;;2.72;;
41885;SDS011;27567;43.084;25.616;2023-07-09T08:35:49;4.13;;;3.13;;
41885;SDS011;27567;43.084;25.616;2023-07-09T08:38:34;5.53;;;3.03;;
41885;SDS011;27567;43.084;25.616;2023-07-09T08:44:17;5.10;;;2.55;;
41885;SDS011;27567;43.084;25.616;2023-07-09T08:50:28;9.45;;;3.65;;
41885;SDS011;27567;43.084;25.616;2023-07-09T08:53:25;9.70;;;3.65;;
41885;SDS011;27567;43.084;25.616;2023-07-09T08:56:20;4.80;;;3.38;;
41885;SDS011;27567;43.084;25.616;2023-07-09T08:59:07;4.68;;;3.17;;
41885;SDS011;27567;43.084;25.616;2023-07-09T09:01:58;4.40;;;3.38;;
41885;SDS011;27567;43.084;25.616;2023-07-09T09:04:47;7.75;;;3.17;;
41885;SDS011;27567;43.084;25.616;2023-07-09T09:07:40;6.47;;;3.70;;
41885;SDS011;27567;43.084;25.616;2023-07-09T09:10:33;5.30;;;3.58;;
41885;SDS011;27567;43.084;25.616;2023-07-09T09:16:22;9.27;;;3.63;;
41885;SDS011;27567;43.084;25.616;2023-07-09T09:19:15;5.85;;;3.67;;
41885;SDS011;27567;43.084;25.616;2023-07-09T09:22:09;6.57;;;3.50;;
41885;SDS011;27567;43.084;25.616;2023-07-09T09:27:47;9.23;;;3.70;;
41885;SDS011;27567;43.084;25.616;2023-07-09T09:30:31;6.15;;;3.38;;
41885;SDS011;27567;43.084;25.616;2023-07-09T09:33:16;5.68;;;3.00;;
41885;SDS011;27567;43.084;25.616;2023-07-09T09:36:02;6.13;;;3.50;;
41885;SDS011;27567;43.084;25.616;2023-07-09T09:38:48;4.90;;;3.58;;
41885;SDS011;27567;43.084;25.616;2023-07-09T09:41:34;4.53;;;3.28;;
41885;SDS011;27567;43.084;25.616;2023-07-09T09:44:24;6.10;;;3.30;;
41885;SDS011;27567;43.084;25.616;2023-07-09T09:47:11;5.93;;;3.55;;
41885;SDS011;27567;43.084;25.616;2023-07-09T09:49:55;6.47;;;3.08;;
41885;SDS011;27567;43.084;25.616;2023-07-09T09:52:39;4.47;;;3.30;;
41885;SDS011;27567;43.084;25.616;2023-07-09T09:55:24;9.35;;;3.05;;
41885;SDS011;27567;43.084;25.616;2023-07-09T09:58:13;4.82;;;3.67;;
41885;SDS011;27567;43.084;25.616;2023-07-09T10:00:58;5.63;;;3.55;;
41885;SDS011;27567;43.084;25.616;2023-07-09T10:03:46;3.88;;;3.10;;
41885;SDS011;27567;43.084;25.616;2023-07-09T10:06:41;5.57;;;3.28;;
41885;SDS011;27567;43.084;25.616;2023-07-09T10:18:43;6.07;;;3.65;;
41885;SDS011;27567;43.084;25.616;2023-07-09T10:24:51;5.45;;;2.72;;
41885;SDS011;27567;43.084;25.616;2023-07-09T10:27:51;3.95;;;3.22;;
41885;SDS011;27567;43.084;25.616;2023-07-09T10:33:55;4.30;;;3.08;;
41885;SDS011;27567;43.084;25.616;2023-07-09T10:40:10;4.88;;;3.17;;
41885;SDS011;27567;43.084;25.616;2023-07-09T10:42:59;3.73;;;3.17;;
41885;SDS011;27567;43.084;25.616;2023-07-09T10:45:47;5.50;;;3.13;;
41885;SDS011;27567;43.084;25.616;2023-07-09T10:48:36;4.05;;;2.55;;
41885;SDS011;27567;43.084;25.616;2023-07-09T11:00:15;7.85;;;2.70;;
41885;SDS011;27567;43.084;25.616;2023-07-09T11:03:38;3.72;;;3.15;;
41885;SDS011;27567;43.084;25.616;2023-07-09T11:09:31;4.82;;;3.08;;
41885;SDS011;27567;43.084;25.616;2023-07-09T11:12:29;5.85;;;2.92;;
41885;SDS011;27567;43.084;25.616;2023-07-09T11:15:16;10.15;;;3.20;;
41885;SDS011;27567;43.084;25.616;2023-07-09T11:18:05;7.28;;;2.75;;
41885;SDS011;27567;43.084;25.616;2023-07-09T11:24:00;4.47;;;2.78;;
41885;SDS011;27567;43.084;25.616;2023-07-09T11:26:46;3.10;;;2.35;;
41885;SDS011;27567;43.084;25.616;2023-07-09T11:29:31;3.30;;;2.10;;
41885;SDS011;27567;43.084;25.616;2023-07-09T11:32:18;4.63;;;2.08;;
41885;SDS011;27567;43.084;25.616;2023-07-09T11:35:06;3.00;;;2.22;;
41885;SDS011;27567;43.084;25.616;2023-07-09T11:37:52;4.60;;;2.08;;
41885;SDS011;27567;43.084;25.616;2023-07-09T11:40:44;2.42;;;2.08;;
41885;SDS011;27567;43.084;25.616;2023-07-09T11:43:33;8.63;;;2.42;;
41885;SDS011;27567;43.084;25.616;2023-07-09T11:46:20;4.18;;;1.95;;
41885;SDS011;27567;43.084;25.616;2023-07-09T11:49:10;3.83;;;1.85;;
41885;SDS011;27567;43.084;25.616;2023-07-09T11:51:58;3.08;;;2.03;;
41885;SDS011;27567;43.084;25.616;2023-07-09T11:54:46;5.13;;;2.40;;
41885;SDS011;27567;43.084;25.616;2023-07-09T11:57:30;3.30;;;2.20;;
41885;SDS011;27567;43.084;25.616;2023-07-09T12:00:15;2.47;;;1.65;;
41885;SDS011;27567;43.084;25.616;2023-07-09T12:02:59;2.72;;;1.88;;
41885;SDS011;27567;43.084;25.616;2023-07-09T12:05:50;7.20;;;2.53;;
41885;SDS011;27567;43.084;25.616;2023-07-09T12:08:38;4.57;;;2.03;;
41885;SDS011;27567;43.084;25.616;2023-07-09T12:11:25;3.35;;;2.22;;
41885;SDS011;27567;43.084;25.616;2023-07-09T12:14:13;6.15;;;2.25;;
41885;SDS011;27567;43.084;25.616;2023-07-09T12:16:59;3.58;;;2.15;;
41885;SDS011;27567;43.084;25.616;2023-07-09T12:19:43;7.53;;;2.88;;
41885;SDS011;27567;43.084;25.616;2023-07-09T12:22:27;6.35;;;2.28;;
41885;SDS011;27567;43.084;25.616;2023-07-09T12:25:21;4.90;;;2.15;;
41885;SDS011;27567;43.084;25.616;2023-07-09T12:28:13;5.05;;;2.70;;
41885;SDS011;27567;43.084;25.616;2023-07-09T12:30:58;3.03;;;2.20;;
41885;SDS011;27567;43.084;25.616;2023-07-09T12:33:49;4.22;;;2.33;;
41885;SDS011;27567;43.084;25.616;2023-07-09T12:36:35;6.38;;;2.78;;
41885;SDS011;27567;43.084;25.616;2023-07-09T12:39:25;5.45;;;2.67;;
41885;SDS011;27567;43.084;25.616;2023-07-09T12:42:17;3.95;;;2.95;;
41885;SDS011;27567;43.084;25.616;2023-07-09T12:45:04;3.60;;;2.55;;
41885;SDS011;27567;43.084;25.616;2023-07-09T12:47:49;7.70;;;2.88;;
41885;SDS011;27567;43.084;25.616;2023-07-09T12:50:37;4.47;;;2.40;;
41885;SDS011;27567;43.084;25.616;2023-07-09T12:53:22;3.25;;;2.92;;
41885;SDS011;27567;43.084;25.616;2023-07-09T12:56:11;4.73;;;2.80;;
41885;SDS011;27567;43.084;25.616;2023-07-09T12:58:57;8.02;;;3.22;;
41885;SDS011;27567;43.084;25.616;2023-07-09T13:01:41;5.38;;;2.55;;
41885;SDS011;27567;43.084;25.616;2023-07-09T13:04:32;4.25;;;2.75;;
41885;SDS011;27567;43.084;25.616;2023-07-09T13:10:17;3.03;;;2.60;;
41885;SDS011;27567;43.084;25.616;2023-07-09T13:13:13;4.10;;;2.60;;
41885;SDS011;27567;43.084;25.616;2023-07-09T13:15:58;3.40;;;3.00;;
41885;SDS011;27567;43.084;25.616;2023-07-09T13:18:45;5.68;;;3.10;;
41885;SDS011;27567;43.084;25.616;2023-07-09T13:21:29;4.05;;;2.63;;
41885;SDS011;27567;43.084;25.616;2023-07-09T13:24:20;4.32;;;2.42;;
41885;SDS011;27567;43.084;25.616;2023-07-09T13:27:08;4.15;;;2.50;;
41885;SDS011;27567;43.084;25.616;2023-07-09T13:29:56;5.43;;;2.65;;
41885;SDS011;27567;43.084;25.616;2023-07-09T13:32:40;3.53;;;2.75;;
41885;SDS011;27567;43.084;25.616;2023-07-09T13:35:24;5.80;;;2.65;;
41885;SDS011;27567;43.084;25.616;2023-07-09T13:38:12;5.47;;;3.00;;
41885;SDS011;27567;43.084;25.616;2023-07-09T13:41:01;3.58;;;2.22;;
41885;SDS011;27567;43.084;25.616;2023-07-09T13:43:53;4.00;;;2.42;;
41885;SDS011;27567;43.084;25.616;2023-07-09T13:46:37;4.75;;;3.20;;
41885;SDS011;27567;43.084;25.616;2023-07-09T13:49:23;5.10;;;2.70;;
41885;SDS011;27567;43.084;25.616;2023-07-09T13:52:14;3.17;;;2.67;;
41885;SDS011;27567;43.084;25.616;2023-07-09T13:55:00;3.75;;;2.53;;
41885;SDS011;27567;43.084;25.616;2023-07-09T13:57:44;2.30;;;2.10;;
41885;SDS011;27567;43.084;25.616;2023-07-09T14:00:29;3.17;;;2.35;;
41885;SDS011;27567;43.084;25.616;2023-07-09T14:03:21;4.50;;;2.50;;
41885;SDS011;27567;43.084;25.616;2023-07-09T14:06:09;3.58;;;2.20;;
41885;SDS011;27567;43.084;25.616;2023-07-09T14:08:55;3.00;;;2.50;;
41885;SDS011;27567;43.084;25.616;2023-07-09T14:11:50;6.35;;;2.90;;
41885;SDS011;27567;43.084;25.616;2023-07-09T14:14:35;4.60;;;2.97;;
41885;SDS011;27567;43.084;25.616;2023-07-09T14:17:20;4.07;;;2.63;;
41885;SDS011;27567;43.084;25.616;2023-07-09T14:20:08;4.30;;;2.65;;
41885;SDS011;27567;43.084;25.616;2023-07-09T14:22:55;3.47;;;2.60;;
41885;SDS011;27567;43.084;25.616;2023-07-09T14:25:39;6.75;;;2.78;;
41885;SDS011;27567;43.084;25.616;2023-07-09T14:28:24;3.47;;;2.47;;
41885;SDS011;27567;43.084;25.616;2023-07-09T14:31:27;4.15;;;3.13;;
41885;SDS011;27567;43.084;25.616;2023-07-09T14:36:59;5.53;;;3.05;;
41885;SDS011;27567;43.084;25.616;2023-07-09T14:39:44;5.35;;;3.03;;
41885;SDS011;27567;43.084;25.616;2023-07-09T14:42:28;4.45;;;3.05;;
41885;SDS011;27567;43.084;25.616;2023-07-09T14:45:20;4.93;;;2.50;;
41885;SDS011;27567;43.084;25.616;2023-07-09T14:48:13;4.82;;;2.95;;
41885;SDS011;27567;43.084;25.616;2023-07-09T14:51:11;5.55;;;2.83;;
41885;SDS011;27567;43.084;25.616;2023-07-09T14:53:58;7.63;;;2.78;;
41885;SDS011;27567;43.084;25.616;2023-07-09T14:56:42;5.13;;;2.72;;
41885;SDS011;27567;43.084;25.616;2023-07-09T14:59:26;5.47;;;2.95;;
41885;SDS011;27567;43.084;25.616;2023-07-09T15:05:04;6.32;;;2.75;;
41885;SDS011;27567;43.084;25.616;2023-07-09T15:07:54;6.13;;;2.63;;
41885;SDS011;27567;43.084;25.616;2023-07-09T15:10:39;4.47;;;2.92;;
41885;SDS011;27567;43.084;25.616;2023-07-09T15:13:30;9.77;;;2.78;;
41885;SDS011;27567;43.084;25.616;2023-07-09T15:16:17;8.02;;;3.10;;
41885;SDS011;27567;43.084;25.616;2023-07-09T15:19:03;4.45;;;2.75;;
41885;SDS011;27567;43.084;25.616;2023-07-09T15:21:52;8.20;;;2.70;;
41885;SDS011;27567;43.084;25.616;2023-07-09T15:24:36;5.13;;;2.70;;
41885;SDS011;27567;43.084;25.616;2023-07-09T15:27:20;5.85;;;2.90;;
41885;SDS011;27567;43.084;25.616;2023-07-09T15:30:11;7.30;;;3.30;;
41885;SDS011;27567;43.084;25.616;2023-07-09T15:32:59;6.15;;;3.10;;
41885;SDS011;27567;43.084;25.616;2023-07-09T15:35:46;6.72;;;3.33;;
41885;SDS011;27567;43.084;25.616;2023-07-09T15:38:31;7.40;;;3.30;;
41885;SDS011;27567;43.084;25.616;2023-07-09T15:41:18;4.00;;;2.72;;
41885;SDS011;27567;43.084;25.616;2023-07-09T15:44:02;4.47;;;3.22;;
41885;SDS011;27567;43.084;25.616;2023-07-09T15:46:55;5.22;;;3.28;;
41885;SDS011;27567;43.084;25.616;2023-07-09T15:49:40;4.55;;;2.75;;
41885;SDS011;27567;43.084;25.616;2023-07-09T15:52:24;4.93;;;2.95;;
41885;SDS011;27567;43.084;25.616;2023-07-09T15:55:15;7.03;;;3.15;;
41885;SDS011;27567;43.084;25.616;2023-07-09T15:58:01;4.05;;;2.75;;
41885;SDS011;27567;43.084;25.616;2023-07-09T16:00:45;4.85;;;3.10;;
41885;SDS011;27567;43.084;25.616;2023-07-09T16:03:29;6.68;;;3.47;;
41885;SDS011;27567;43.084;25.616;2023-07-09T16:06:14;4.28;;;2.97;;
41885;SDS011;27567;43.084;25.616;2023-07-09T16:08:59;6.38;;;2.78;;
41885;SDS011;27567;43.084;25.616;2023-07-09T16:11:47;5.60;;;2.70;;
41885;SDS011;27567;43.084;25.616;2023-07-09T16:14:35;5.80;;;3.00;;
41885;SDS011;27567;43.084;25.616;2023-07-09T16:17:19;8.80;;;3.10;;
41885;SDS011;27567;43.084;25.616;2023-07-09T16:20:03;5.10;;;2.78;;
41885;SDS011;27567;43.084;25.616;2023-07-09T16:22:48;4.70;;;2.75;;
41885;SDS011;27567;43.084;25.616;2023-07-09T16:25:34;4.40;;;2.95;;
41885;SDS011;27567;43.084;25.616;2023-07-09T16:28:19;4.63;;;2.53;;
41885;SDS011;27567;43.084;25.616;2023-07-09T16:31:04;5.20;;;2.47;;
41885;SDS011;27567;43.084;25.616;2023-07-09T16:33:48;4.20;;;2.92;;
41885;SDS011;27567;43.084;25.616;2023-07-09T16:36:32;4.78;;;3.03;;
41885;SDS011;27567;43.084;25.616;2023-07-09T16:39:21;4.70;;;2.80;;
41885;SDS011;27567;43.084;25.616;2023-07-09T16:42:19;6.25;;;3.40;;
41885;SDS011;27567;43.084;25.616;2023-07-09T16:45:03;4.55;;;3.17;;
41885;SDS011;27567;43.084;25.616;2023-07-09T16:47:48;5.65;;;3.10;;
41885;SDS011;27567;43.084;25.616;2023-07-09T16:50:33;6.07;;;2.55;;
41885;SDS011;27567;43.084;25.616;2023-07-09T16:53:18;3.67;;;2.80;;
41885;SDS011;27567;43.084;25.616;2023-07-09T16:56:04;9.43;;;3.40;;
41885;SDS011;27567;43.084;25.616;2023-07-09T16:58:48;5.18;;;3.08;;
41885;SDS011;27567;43.084;25.616;2023-07-09T17:01:32;9.02;;;3.10;;
41885;SDS011;27567;43.084;25.616;2023-07-09T17:04:24;5.80;;;2.72;;
41885;SDS011;27567;43.084;25.616;2023-07-09T17:07:10;4.10;;;2.83;;
41885;SDS011;27567;43.084;25.616;2023-07-09T17:09:55;5.50;;;2.90;;
41885;SDS011;27567;43.084;25.616;2023-07-09T17:12:42;7.72;;;3.92;;
41885;SDS011;27567;43.084;25.616;2023-07-09T17:15:28;6.22;;;3.90;;